sensor_id;sensor_type;location;lat;lon;timestamp;pressure;altitude;pressure_sealevel;temperature;humidity
5238;BME280;2639;49.700;7.962;2023-01-31T04:03:11;99747.03;;;-0.02;100.00
5238;BME280;2639;49.700;7.962;2023-01-31T04:06:25;99750.75;;;-0.05;100.00
5238;BME280;2639;49.700;7.962;2023-01-31T04:09:36;99750.75;;;-0.05;100.00
5238;BME280;2639;49.700;7.962;2023-01-31T04:12:46;99765.13;;;-0.11;100.00
5238;BME280;2639;49.700;7.962;2023-01-31T04:15:56;99766.09;;;-0.16;100.00
5238;BME280;2639;49.700;7.962;2023-01-31T04:19:07;99764.00;;;-0.13;100.00
5238;BME280;2639;49.700;7.962;2023-01-31T04:22:17;99755.22;;;-0.23;100.00
5238;BME280;2639;49.700;7.962;2023-01-31T04:25:26;99753.59;;;-0.22;100.00
5238;BME280;2639;49.700;7.962;2023-01-31T04:28:40;99753.38;;;-0.24;100.00
5238;BME280;2639;49.700;7.962;2023-01-31T04:31:49;99745.81;;;-0.24;100.00
5238;BME280;2639;49.700;7.962;2023-01-31T04:35:00;99747.81;;;-0.21;100.00
5238;BME280;2639;49.700;7.962;2023-01-31T04:38:10;99746.91;;;-0.22;100.00
5238;BME280;2639;49.700;7.962;2023-01-31T04:41:20;99743.38;;;-0.29;100.00
5238;BME280;2639;49.700;7.962;2023-01-31T04:44:30;99736.50;;;-0.30;100.00
5238;BME280;2639;49.700;7.962;2023-01-31T04:47:39;99740.66;;;-0.31;100.00
5238;BME280;2639;49.700;7.962;2023-01-31T04:50:50;99732.19;;;-0.31;100.00
5238;BME280;2639;49.700;7.962;2023-01-31T04:54:00;99739.75;;;-0.31;100.00
5238;BME280;2639;49.700;7.962;2023-01-31T04:57:09;99742.28;;;-0.31;100.00
5238;BME280;2639;49.700;7.962;2023-01-31T05:00:19;99735.22;;;-0.34;100.00
5238;BME280;2639;49.700;7.962;2023-01-31T05:03:29;99726.53;;;-0.36;100.00
5238;BME280;2639;49.700;7.962;2023-01-31T05:06:41;99728.75;;;-0.32;100.00
5238;BME280;2639;49.700;7.962;2023-01-31T05:09:51;99720.97;;;-0.33;100.00
5238;BME280;2639;49.700;7.962;2023-01-31T05:13:01;99728.75;;;-0.32;100.00
5238;BME280;2639;49.700;7.962;2023-01-31T05:16:11;99728.03;;;-0.31;100.00
5238;BME280;2639;49.700;7.962;2023-01-31T05:19:20;99735.59;;;-0.31;100.00
5238;BME280;2639;49.700;7.962;2023-01-31T05:22:31;99728.75;;;-0.32;100.00
5238;BME280;2639;49.700;7.962;2023-01-31T05:25:42;99723.28;;;-0.35;100.00
5238;BME280;2639;49.700;7.962;2023-01-31T05:28:52;99724.31;;;-0.40;100.00
5238;BME280;2639;49.700;7.962;2023-01-31T05:32:02;99709.50;;;-0.44;100.00
5238;BME280;2639;49.700;7.962;2023-01-31T05:35:12;99714.41;;;-0.51;100.00
5238;BME280;2639;49.700;7.962;2023-01-31T05:38:23;99721.66;;;-0.47;100.00
5238;BME280;2639;49.700;7.962;2023-01-31T05:41:33;99718.03;;;-0.49;100.00
5238;BME280;2639;49.700;7.962;2023-01-31T05:44:44;99721.28;;;-0.50;100.00
5238;BME280;2639;49.700;7.962;2023-01-31T05:47:54;99726.72;;;-0.47;100.00
5238;BME280;2639;49.700;7.962;2023-01-31T05:51:04;99733.09;;;-0.44;100.00
5238;BME280;2639;49.700;7.962;2023-01-31T05:54:15;99730.84;;;-0.35;100.00
5238;BME280;2639;49.700;7.962;2023-01-31T05:57:25;99721.88;;;-0.33;100.00
5238;BME280;2639;49.700;7.962;2023-01-31T07:51:45;99723.03;;;1.33;100.00
5238;BME280;2639;49.700;7.962;2023-01-31T07:54:56;99723.81;;;1.39;100.00
5238;BME280;2639;49.700;7.962;2023-01-31T07:58:05;99723.81;;;1.39;100.00
5238;BME280;2639;49.700;7.962;2023-01-31T08:01:17;99715.50;;;1.40;100.00
5238;BME280;2639;49.700;7.962;2023-01-31T08:04:41;99727.91;;;1.59;100.00
5238;BME280;2639;49.700;7.962;2023-01-31T08:07:52;99723.06;;;1.60;100.00
5238;BME280;2639;49.700;7.962;2023-01-31T08:11:18;99727.63;;;1.70;100.00
5238;BME280;2639;49.700;7.962;2023-01-31T08:14:27;99735.22;;;1.70;100.00
5238;BME280;2639;49.700;7.962;2023-01-31T08:17:38;99722.56;;;1.70;100.00
5238;BME280;2639;49.700;7.962;2023-01-31T08:20:48;99720.63;;;1.75;100.00
5238;BME280;2639;49.700;7.962;2023-01-31T08:23:59;99729.31;;;1.77;100.00
5238;BME280;2639;49.700;7.962;2023-01-31T08:27:11;99721.88;;;1.78;100.00
5238;BME280;2639;49.700;7.962;2023-01-31T08:30:22;99732.41;;;1.81;100.00
5238;BME280;2639;49.700;7.962;2023-01-31T08:33:32;99733.31;;;1.82;100.00
5238;BME280;2639;49.700;7.962;2023-01-31T08:36:42;99737.06;;;1.78;100.00
5238;BME280;2639;49.700;7.962;2023-01-31T08:39:53;99746.16;;;1.83;100.00
5238;BME280;2639;49.700;7.962;2023-01-31T08:43:03;99749.16;;;1.74;100.00
5238;BME280;2639;49.700;7.962;2023-01-31T08:46:15;99758.38;;;1.73;100.00
5238;BME280;2639;49.700;7.962;2023-01-31T08:49:25;99751.25;;;1.83;100.00
5238;BME280;2639;49.700;7.962;2023-01-31T08:52:34;99753.41;;;1.87;100.00
5238;BME280;2639;49.700;7.962;2023-01-31T08:55:45;99750.63;;;2.06;100.00
5238;BME280;2639;49.700;7.962;2023-01-31T08:58:56;99722.50;;;2.24;100.00
5238;BME280;2639;49.700;7.962;2023-01-31T09:02:07;99730.34;;;2.47;100.00
5238;BME280;2639;49.700;7.962;2023-01-31T09:05:18;99720.03;;;2.46;100.00
5238;BME280;2639;49.700;7.962;2023-01-31T09:08:28;99716.44;;;2.44;100.00
5238;BME280;2639;49.700;7.962;2023-01-31T09:11:40;99713.53;;;2.48;100.00
5238;BME280;2639;49.700;7.962;2023-01-31T09:14:49;99700.16;;;2.49;100.00
5238;BME280;2639;49.700;7.962;2023-01-31T09:17:59;99701.94;;;2.50;100.00
5238;BME280;2639;49.700;7.962;2023-01-31T09:21:11;99694.75;;;2.60;100.00
5238;BME280;2639;49.700;7.962;2023-01-31T09:24:22;99690.56;;;2.61;100.00
5238;BME280;2639;49.700;7.962;2023-01-31T09:27:34;99689.16;;;2.70;100.00
5238;BME280;2639;49.700;7.962;2023-01-31T09:30:44;99698.06;;;2.95;100.00
5238;BME280;2639;49.700;7.962;2023-01-31T09:33:53;99692.63;;;3.28;100.00
5238;BME280;2639;49.700;7.962;2023-01-31T09:37:03;99689.72;;;3.46;100.00
5238;BME280;2639;49.700;7.962;2023-01-31T09:40:18;99714.34;;;3.54;100.00
5238;BME280;2639;49.700;7.962;2023-01-31T09:43:37;99696.97;;;3.22;100.00
5238;BME280;2639;49.700;7.962;2023-01-31T09:46:52;99688.47;;;3.14;100.00
5238;BME280;2639;49.700;7.962;2023-01-31T09:50:06;99693.69;;;3.08;100.00
5238;BME280;2639;49.700;7.962;2023-01-31T09:53:24;99693.91;;;3.03;100.00
5238;BME280;2639;49.700;7.962;2023-01-31T09:56:41;99715.81;;;3.02;100.00
5238;BME280;2639;49.700;7.962;2023-01-31T09:59:59;99720.13;;;2.82;100.00
5238;BME280;2639;49.700;7.962;2023-01-31T10:03:25;99709.97;;;2.74;100.00
5238;BME280;2639;49.700;7.962;2023-01-31T10:06:42;99706.72;;;2.76;100.00
5238;BME280;2639;49.700;7.962;2023-01-31T10:09:56;99708.88;;;2.72;100.00
5238;BME280;2639;49.700;7.962;2023-01-31T10:13:17;99712.50;;;2.67;100.00
5238;BME280;2639;49.700;7.962;2023-01-31T10:16:34;99698.03;;;2.81;100.00
5238;BME280;2639;49.700;7.962;2023-01-31T10:19:48;99699.50;;;2.86;100.00
5238;BME280;2639;49.700;7.962;2023-01-31T10:23:03;99708.56;;;2.91;100.00
5238;BME280;2639;49.700;7.962;2023-01-31T10:26:19;99719.81;;;3.00;100.00
5238;BME280;2639;49.700;7.962;2023-01-31T10:29:34;99716.72;;;3.03;100.00
5238;BME280;2639;49.700;7.962;2023-01-31T10:32:49;99692.25;;;3.10;100.00
5238;BME280;2639;49.700;7.962;2023-01-31T10:36:03;99682.66;;;3.15;100.00
5238;BME280;2639;49.700;7.962;2023-01-31T10:39:19;99689.56;;;3.23;100.00
5238;BME280;2639;49.700;7.962;2023-01-31T10:42:35;99698.63;;;3.14;100.00
5238;BME280;2639;49.700;7.962;2023-01-31T10:45:45;99702.94;;;3.15;100.00
5238;BME280;2639;49.700;7.962;2023-01-31T10:48:56;99692.25;;;3.25;100.00
5238;BME280;2639;49.700;7.962;2023-01-31T10:52:16;99702.78;;;3.28;100.00
5238;BME280;2639;49.700;7.962;2023-01-31T10:55:45;99690.78;;;3.41;100.00
5238;BME280;2639;49.700;7.962;2023-01-31T10:59:00;99686.63;;;3.56;100.00
5238;BME280;2639;49.700;7.962;2023-01-31T11:02:17;99648.88;;;3.59;100.00
5238;BME280;2639;49.700;7.962;2023-01-31T11:05:29;99651.75;;;3.76;100.00
5238;BME280;2639;49.700;7.962;2023-01-31T11:08:44;99645.75;;;3.76;100.00
5238;BME280;2639;49.700;7.962;2023-01-31T11:11:57;99623.41;;;3.80;100.00
5238;BME280;2639;49.700;7.962;2023-01-31T11:15:14;99616.31;;;3.85;100.00
5238;BME280;2639;49.700;7.962;2023-01-31T11:18:28;99623.97;;;3.78;100.00
5238;BME280;2639;49.700;7.962;2023-01-31T11:21:39;99616.69;;;3.88;100.00
5238;BME280;2639;49.700;7.962;2023-01-31T11:24:49;99615.66;;;3.79;100.00
5238;BME280;2639;49.700;7.962;2023-01-31T11:28:02;99611.63;;;3.88;100.00
5238;BME280;2639;49.700;7.962;2023-01-31T11:31:18;99594.50;;;4.02;100.00
5238;BME280;2639;49.700;7.962;2023-01-31T11:34:31;99592.63;;;4.08;100.00
5238;BME280;2639;49.700;7.962;2023-01-31T11:37:50;99550.94;;;4.29;100.00
5238;BME280;2639;49.700;7.962;2023-01-31T11:41:26;99527.75;;;4.49;100.00
5238;BME280;2639;49.700;7.962;2023-01-31T11:44:36;99527.78;;;4.88;97.43
5238;BME280;2639;49.700;7.962;2023-01-31T11:47:48;99500.25;;;5.15;95.03
5238;BME280;2639;49.700;7.962;2023-01-31T11:51:00;99499.22;;;5.38;93.06
5238;BME280;2639;49.700;7.962;2023-01-31T11:54:17;99505.16;;;5.30;91.87
5238;BME280;2639;49.700;7.962;2023-01-31T11:57:31;99488.97;;;5.13;92.13
5238;BME280;2639;49.700;7.962;2023-01-31T12:00:51;99487.91;;;5.11;92.09
5238;BME280;2639;49.700;7.962;2023-01-31T12:04:03;99492.16;;;5.19;92.83
5238;BME280;2639;49.700;7.962;2023-01-31T12:07:21;99470.31;;;5.53;91.70
5238;BME280;2639;49.700;7.962;2023-01-31T12:10:39;99461.19;;;5.55;90.26
5238;BME280;2639;49.700;7.962;2023-01-31T12:13:50;99452.47;;;5.78;89.32
5238;BME280;2639;49.700;7.962;2023-01-31T12:17:01;99452.34;;;5.76;87.49
5238;BME280;2639;49.700;7.962;2023-01-31T12:20:19;99457.41;;;5.92;88.25
5238;BME280;2639;49.700;7.962;2023-01-31T12:23:43;99466.03;;;6.01;87.89
5238;BME280;2639;49.700;7.962;2023-01-31T12:27:05;99474.13;;;5.65;88.62
5238;BME280;2639;49.700;7.962;2023-01-31T12:30:30;99461.38;;;5.41;90.12
5238;BME280;2639;49.700;7.962;2023-01-31T12:34:00;99443.31;;;5.15;92.46
5238;BME280;2639;49.700;7.962;2023-01-31T12:37:23;99443.56;;;5.09;93.64
5238;BME280;2639;49.700;7.962;2023-01-31T12:40:39;99444.38;;;5.01;94.62
5238;BME280;2639;49.700;7.962;2023-01-31T12:44:09;99432.31;;;5.07;94.04
5238;BME280;2639;49.700;7.962;2023-01-31T12:47:37;99421.16;;;5.14;94.75
5238;BME280;2639;49.700;7.962;2023-01-31T12:50:58;99399.72;;;5.12;94.81
5238;BME280;2639;49.700;7.962;2023-01-31T12:54:23;99392.75;;;5.18;94.83
5238;BME280;2639;49.700;7.962;2023-01-31T12:57:38;99402.16;;;5.35;94.30
5238;BME280;2639;49.700;7.962;2023-01-31T13:00:55;99395.91;;;5.40;92.92
5238;BME280;2639;49.700;7.962;2023-01-31T13:04:24;99383.81;;;5.46;93.21
5238;BME280;2639;49.700;7.962;2023-01-31T13:07:38;99390.28;;;5.51;91.69
5238;BME280;2639;49.700;7.962;2023-01-31T13:10:56;99393.38;;;5.64;91.87
5238;BME280;2639;49.700;7.962;2023-01-31T13:14:12;99382.00;;;5.69;91.20
5238;BME280;2639;49.700;7.962;2023-01-31T13:17:27;99390.66;;;5.87;90.73
5238;BME280;2639;49.700;7.962;2023-01-31T13:20:40;99398.38;;;5.96;89.54
5238;BME280;2639;49.700;7.962;2023-01-31T13:23:54;99390.28;;;6.00;89.98
5238;BME280;2639;49.700;7.962;2023-01-31T13:27:14;99398.16;;;6.10;89.50
5238;BME280;2639;49.700;7.962;2023-01-31T13:30:32;99414.88;;;6.00;89.57
5238;BME280;2639;49.700;7.962;2023-01-31T13:33:46;99400.78;;;5.95;89.89
5238;BME280;2639;49.700;7.962;2023-01-31T13:37:01;99404.41;;;6.05;89.70
5238;BME280;2639;49.700;7.962;2023-01-31T13:40:17;99403.13;;;5.93;90.18
5238;BME280;2639;49.700;7.962;2023-01-31T13:43:28;99386.88;;;5.84;89.84
5238;BME280;2639;49.700;7.962;2023-01-31T13:46:43;99398.25;;;5.79;91.06
5238;BME280;2639;49.700;7.962;2023-01-31T13:50:03;99386.16;;;5.60;92.15
5238;BME280;2639;49.700;7.962;2023-01-31T13:53:19;99390.72;;;5.72;90.81
5238;BME280;2639;49.700;7.962;2023-01-31T13:56:33;99395.13;;;5.81;91.58
5238;BME280;2639;49.700;7.962;2023-01-31T13:59:51;99395.28;;;5.83;91.41
5238;BME280;2639;49.700;7.962;2023-01-31T14:03:04;99397.38;;;5.87;91.13
5238;BME280;2639;49.700;7.962;2023-01-31T14:06:15;99403.28;;;5.70;91.65
5238;BME280;2639;49.700;7.962;2023-01-31T14:09:27;99396.53;;;5.70;92.20
5238;BME280;2639;49.700;7.962;2023-01-31T14:12:37;99392.13;;;5.61;92.71
5238;BME280;2639;49.700;7.962;2023-01-31T14:15:49;99398.47;;;5.64;92.16
5238;BME280;2639;49.700;7.962;2023-01-31T14:19:00;99409.28;;;5.70;92.45
5238;BME280;2639;49.700;7.962;2023-01-31T14:22:16;99426.13;;;5.53;93.60
5238;BME280;2639;49.700;7.962;2023-01-31T14:25:40;99418.81;;;5.40;94.13
5238;BME280;2639;49.700;7.962;2023-01-31T14:28:50;99418.13;;;5.09;96.50
5238;BME280;2639;49.700;7.962;2023-01-31T14:32:12;99426.06;;;5.12;97.74
5238;BME280;2639;49.700;7.962;2023-01-31T14:35:35;99424.28;;;5.11;98.18
5238;BME280;2639;49.700;7.962;2023-01-31T14:39:11;99415.97;;;5.05;99.31
5238;BME280;2639;49.700;7.962;2023-01-31T14:42:38;99417.81;;;5.06;100.00
5238;BME280;2639;49.700;7.962;2023-01-31T14:46:03;99421.16;;;5.14;99.91
5238;BME280;2639;49.700;7.962;2023-01-31T14:49:39;99408.59;;;5.15;100.00
5238;BME280;2639;49.700;7.962;2023-01-31T14:53:05;99402.19;;;5.03;100.00
5238;BME280;2639;49.700;7.962;2023-01-31T14:56:34;99391.69;;;5.00;100.00
5238;BME280;2639;49.700;7.962;2023-01-31T14:59:54;99377.97;;;4.91;100.00
5238;BME280;2639;49.700;7.962;2023-01-31T15:03:06;99377.41;;;4.93;100.00
5238;BME280;2639;49.700;7.962;2023-01-31T15:06:23;99380.75;;;5.01;100.00
5238;BME280;2639;49.700;7.962;2023-01-31T15:09:37;99379.53;;;4.97;100.00
5238;BME280;2639;49.700;7.962;2023-01-31T15:12:53;99392.59;;;5.00;100.00
5238;BME280;2639;49.700;7.962;2023-01-31T15:16:13;99386.59;;;5.00;100.00
5238;BME280;2639;49.700;7.962;2023-01-31T15:19:27;99394.91;;;4.90;100.00
5238;BME280;2639;49.700;7.962;2023-01-31T15:22:40;99401.47;;;4.88;100.00
5238;BME280;2639;49.700;7.962;2023-01-31T15:25:51;99405.00;;;4.81;100.00
5238;BME280;2639;49.700;7.962;2023-01-31T15:29:04;99405.66;;;4.88;100.00
5238;BME280;2639;49.700;7.962;2023-01-31T15:32:26;99412.94;;;4.84;100.00
5238;BME280;2639;49.700;7.962;2023-01-31T15:35:47;99416.63;;;4.79;100.00
5238;BME280;2639;49.700;7.962;2023-01-31T15:39:03;99411.53;;;4.79;100.00
5238;BME280;2639;49.700;7.962;2023-01-31T15:42:21;99415.97;;;4.73;100.00
5238;BME280;2639;49.700;7.962;2023-01-31T15:45:32;99409.97;;;4.73;100.00
5238;BME280;2639;49.700;7.962;2023-01-31T15:48:43;99405.06;;;4.74;100.00
5238;BME280;2639;49.700;7.962;2023-01-31T15:52:11;99406.84;;;4.75;100.00
5238;BME280;2639;49.700;7.962;2023-01-31T15:55:22;99410.41;;;4.84;100.00
5238;BME280;2639;49.700;7.962;2023-01-31T15:58:33;99417.31;;;4.85;100.00
5238;BME280;2639;49.700;7.962;2023-01-31T16:01:47;99407.63;;;4.74;100.00
5238;BME280;2639;49.700;7.962;2023-01-31T16:04:58;99407.22;;;4.78;100.00
5238;BME280;2639;49.700;7.962;2023-01-31T16:08:19;99408.69;;;4.76;100.00
5238;BME280;2639;49.700;7.962;2023-01-31T16:11:31;99397.94;;;4.79;100.00
5238;BME280;2639;49.700;7.962;2023-01-31T16:14:44;99384.31;;;4.78;100.00
5238;BME280;2639;49.700;7.962;2023-01-31T16:17:59;99401.69;;;4.82;100.00
5238;BME280;2639;49.700;7.962;2023-01-31T16:21:13;99394.06;;;4.82;100.00
5238;BME280;2639;49.700;7.962;2023-01-31T16:24:26;99395.13;;;4.84;100.00
5238;BME280;2639;49.700;7.962;2023-01-31T16:27:36;99400.41;;;4.86;100.00
5238;BME280;2639;49.700;7.962;2023-01-31T16:30:47;99404.31;;;4.91;100.00
5238;BME280;2639;49.700;7.962;2023-01-31T16:34:00;99398.75;;;4.87;100.00
5238;BME280;2639;49.700;7.962;2023-01-31T16:37:11;99393.34;;;4.83;100.00
5238;BME280;2639;49.700;7.962;2023-01-31T16:40:24;99406.22;;;4.85;100.00
5238;BME280;2639;49.700;7.962;2023-01-31T16:43:36;99404.66;;;4.78;100.00
5238;BME280;2639;49.700;7.962;2023-01-31T16:46:47;99423.88;;;4.83;100.00
5238;BME280;2639;49.700;7.962;2023-01-31T16:50:24;99415.16;;;4.81;100.00
5238;BME280;2639;49.700;7.962;2023-01-31T16:54:13;99407.34;;;4.80;100.00
5238;BME280;2639;49.700;7.962;2023-01-31T16:57:34;99415.16;;;4.81;100.00
5238;BME280;2639;49.700;7.962;2023-01-31T17:00:46;99413.69;;;4.83;100.00
5238;BME280;2639;49.700;7.962;2023-01-31T17:04:01;99418.97;;;4.85;100.00
5238;BME280;2639;49.700;7.962;2023-01-31T17:07:16;99410.75;;;4.88;100.00
5238;BME280;2639;49.700;7.962;2023-01-31T17:10:29;99421.75;;;4.95;100.00
5238;BME280;2639;49.700;7.962;2023-01-31T17:13:39;99414.41;;;4.98;100.00
5238;BME280;2639;49.700;7.962;2023-01-31T17:16:49;99419.69;;;5.00;100.00
5238;BME280;2639;49.700;7.962;2023-01-31T17:19:59;99430.09;;;5.10;100.00
5238;BME280;2639;49.700;7.962;2023-01-31T17:23:11;99433.72;;;5.12;100.00
5238;BME280;2639;49.700;7.962;2023-01-31T17:26:22;99428.88;;;5.06;100.00
5238;BME280;2639;49.700;7.962;2023-01-31T17:29:32;99422.94;;;4.99;100.00
5238;BME280;2639;49.700;7.962;2023-01-31T17:32:42;99425.50;;;4.99;100.00
5238;BME280;2639;49.700;7.962;2023-01-31T17:35:52;99433.88;;;4.98;100.00
5238;BME280;2639;49.700;7.962;2023-01-31T17:39:06;99428.63;;;4.96;100.00
5238;BME280;2639;49.700;7.962;2023-01-31T17:42:17;99437.19;;;4.97;100.00
5238;BME280;2639;49.700;7.962;2023-01-31T17:45:27;99441.19;;;4.95;100.00
5238;BME280;2639;49.700;7.962;2023-01-31T17:48:37;99432.88;;;4.89;100.00
5238;BME280;2639;49.700;7.962;2023-01-31T17:51:47;99437.19;;;4.97;100.00
5238;BME280;2639;49.700;7.962;2023-01-31T17:54:58;99431.25;;;5.05;100.00
5238;BME280;2639;49.700;7.962;2023-01-31T17:58:11;99437.00;;;5.11;100.00
5238;BME280;2639;49.700;7.962;2023-01-31T18:01:22;99434.47;;;5.11;100.00
5238;BME280;2639;49.700;7.962;2023-01-31T18:04:32;99438.16;;;5.06;100.00
5238;BME280;2639;49.700;7.962;2023-01-31T18:07:42;99431.75;;;5.10;100.00
5238;BME280;2639;49.700;7.962;2023-01-31T18:10:53;99429.03;;;5.08;100.00
5238;BME280;2639;49.700;7.962;2023-01-31T18:14:02;99427.63;;;5.03;100.00
5238;BME280;2639;49.700;7.962;2023-01-31T18:17:13;99421.97;;;5.05;100.00
5238;BME280;2639;49.700;7.962;2023-01-31T18:20:22;99424.03;;;5.01;100.00
5238;BME280;2639;49.700;7.962;2023-01-31T18:23:32;99439.88;;;4.98;100.00
5238;BME280;2639;49.700;7.962;2023-01-31T18:26:43;99441.50;;;4.98;100.00
5238;BME280;2639;49.700;7.962;2023-01-31T18:29:53;99442.31;;;5.05;100.00
5238;BME280;2639;49.700;7.962;2023-01-31T18:33:03;99435.84;;;5.16;100.00
5238;BME280;2639;49.700;7.962;2023-01-31T18:36:16;99452.91;;;5.17;100.00
5238;BME280;2639;49.700;7.962;2023-01-31T18:39:26;99434.19;;;5.01;100.00
5238;BME280;2639;49.700;7.962;2023-01-31T18:42:37;99427.63;;;5.03;100.00
5238;BME280;2639;49.700;7.962;2023-01-31T18:45:47;99432.72;;;5.03;100.00
5238;BME280;2639;49.700;7.962;2023-01-31T18:48:57;99429.09;;;5.01;100.00
5238;BME280;2639;49.700;7.962;2023-01-31T18:52:07;99438.47;;;5.09;100.00
5238;BME280;2639;49.700;7.962;2023-01-31T18:55:16;99440.94;;;5.16;100.00
5238;BME280;2639;49.700;7.962;2023-01-31T18:58:32;99448.00;;;5.19;100.00
5238;BME280;2639;49.700;7.962;2023-01-31T19:01:42;99445.72;;;5.13;100.00
5238;BME280;2639;49.700;7.962;2023-01-31T19:04:52;99446.69;;;5.22;100.00
5238;BME280;2639;49.700;7.962;2023-01-31T19:08:02;99446.25;;;5.26;100.00
5238;BME280;2639;49.700;7.962;2023-01-31T19:11:13;99443.47;;;5.16;100.00
5238;BME280;2639;49.700;7.962;2023-01-31T19:14:24;99431.56;;;5.08;100.00
5238;BME280;2639;49.700;7.962;2023-01-31T19:17:34;99438.41;;;5.16;100.00
5238;BME280;2639;49.700;7.962;2023-01-31T19:20:45;99425.19;;;5.12;100.00
5238;BME280;2639;49.700;7.962;2023-01-31T19:23:56;99428.38;;;5.18;100.00
5238;BME280;2639;49.700;7.962;2023-01-31T19:27:06;99427.13;;;5.14;100.00
5238;BME280;2639;49.700;7.962;2023-01-31T19:30:17;99437.91;;;5.12;100.00
5238;BME280;2639;49.700;7.962;2023-01-31T19:33:27;99428.97;;;5.15;100.00
5238;BME280;2639;49.700;7.962;2023-01-31T19:36:38;99425.84;;;5.18;100.00
5238;BME280;2639;49.700;7.962;2023-01-31T19:39:48;99418.59;;;5.14;100.00
5238;BME280;2639;49.700;7.962;2023-01-31T19:42:58;99426.06;;;5.12;100.00
5238;BME280;2639;49.700;7.962;2023-01-31T19:46:10;99421.75;;;5.11;100.00
5238;BME280;2639;49.700;7.962;2023-01-31T19:49:20;99421.75;;;5.11;100.00
5238;BME280;2639;49.700;7.962;2023-01-31T19:52:30;99417.63;;;5.04;100.00
5238;BME280;2639;49.700;7.962;2023-01-31T19:55:40;99432.00;;;5.04;100.00
5238;BME280;2639;49.700;7.962;2023-01-31T19:58:51;99426.16;;;5.05;100.00
5238;BME280;2639;49.700;7.962;2023-01-31T20:02:02;99421.06;;;5.05;100.00
5238;BME280;2639;49.700;7.962;2023-01-31T20:05:11;99427.50;;;5.01;100.00
5238;BME280;2639;49.700;7.962;2023-01-31T20:08:23;99424.38;;;5.04;100.00
5238;BME280;2639;49.700;7.962;2023-01-31T20:11:35;99416.28;;;5.08;100.00
5238;BME280;2639;49.700;7.962;2023-01-31T20:14:44;99421.88;;;5.13;100.00
